sensor_id;sensor_type;location;lat;lon;timestamp;pressure;altitude;pressure_sealevel;temperature;humidity
37298;BME280;30517;51.932;4.278;2023-07-29T00:01:55;100717.06;;;21.69;52.13
37298;BME280;30517;51.932;4.278;2023-07-29T00:04:36;100686.56;;;21.53;52.19
37298;BME280;30517;51.932;4.278;2023-07-29T00:07:17;100729.19;;;21.76;52.19
37298;BME280;30517;51.932;4.278;2023-07-29T00:09:58;100714.38;;;21.69;52.04
37298;BME280;30517;51.932;4.278;2023-07-29T00:12:38;100698.16;;;21.53;51.95
37298;BME280;30517;51.932;4.278;2023-07-29T00:15:19;100703.16;;;21.61;51.81
37298;BME280;30517;51.932;4.278;2023-07-29T00:18:00;100648.38;;;21.29;51.95
37298;BME280;30517;51.932;4.278;2023-07-29T00:20:41;100723.22;;;21.71;51.88
37298;BME280;30517;51.932;4.278;2023-07-29T00:23:22;100729.72;;;21.65;52.10
37298;BME280;30517;51.932;4.278;2023-07-29T00:26:03;100711.78;;;21.49;52.29
37298;BME280;30517;51.932;4.278;2023-07-29T00:28:44;100707.16;;;21.52;51.86
37298;BME280;30517;51.932;4.278;2023-07-29T00:31:27;100693.09;;;21.47;52.11
37298;BME280;30517;51.932;4.278;2023-07-29T00:34:08;100679.22;;;21.39;51.74
37298;BME280;30517;51.932;4.278;2023-07-29T00:36:50;100732.66;;;21.61;51.57
37298;BME280;30517;51.932;4.278;2023-07-29T00:39:32;100716.00;;;21.54;51.89
37298;BME280;30517;51.932;4.278;2023-07-29T00:42:13;100729.41;;;21.54;52.10
37298;BME280;30517;51.932;4.278;2023-07-29T00:44:54;100719.94;;;21.47;52.34
37298;BME280;30517;51.932;4.278;2023-07-29T00:47:34;100698.06;;;21.37;52.11
37298;BME280;30517;51.932;4.278;2023-07-29T00:50:15;100721.97;;;21.42;52.27
37298;BME280;30517;51.932;4.278;2023-07-29T00:52:56;100697.16;;;21.37;52.02
37298;BME280;30517;51.932;4.278;2023-07-29T00:55:37;100710.28;;;21.43;52.48
37298;BME280;30517;51.932;4.278;2023-07-29T00:58:19;100691.47;;;21.26;52.17
37298;BME280;30517;51.932;4.278;2023-07-29T01:01:00;100713.31;;;21.35;52.30
37298;BME280;30517;51.932;4.278;2023-07-29T01:03:41;100705.88;;;21.42;52.14
37298;BME280;30517;51.932;4.278;2023-07-29T01:09:21;100680.94;;;21.21;52.33
37298;BME280;30517;51.932;4.278;2023-07-29T01:12:16;100696.44;;;21.33;52.39
37298;BME280;30517;51.932;4.278;2023-07-29T01:15:12;100682.44;;;21.27;52.22
37298;BME280;30517;51.932;4.278;2023-07-29T01:18:02;100708.03;;;21.34;52.10
37298;BME280;30517;51.932;4.278;2023-07-29T01:20:46;100703.84;;;21.28;52.13
37298;BME280;30517;51.932;4.278;2023-07-29T01:23:32;100699.34;;;21.29;52.18
37298;BME280;30517;51.932;4.278;2023-07-29T01:26:13;100666.75;;;21.00;52.48
37298;BME280;30517;51.932;4.278;2023-07-29T01:28:53;100689.63;;;21.26;52.24
37298;BME280;30517;51.932;4.278;2023-07-29T01:31:39;100649.50;;;21.06;52.22
37298;BME280;30517;51.932;4.278;2023-07-29T01:34:28;100689.69;;;21.25;52.23
37298;BME280;30517;51.932;4.278;2023-07-29T01:37:13;100700.94;;;21.14;52.73
37298;BME280;30517;51.932;4.278;2023-07-29T01:39:59;100659.16;;;20.91;52.42
37298;BME280;30517;51.932;4.278;2023-07-29T01:42:40;100685.09;;;21.09;52.68
37298;BME280;30517;51.932;4.278;2023-07-29T01:45:25;100671.19;;;21.01;52.43
37298;BME280;30517;51.932;4.278;2023-07-29T01:48:06;100693.91;;;21.11;52.56
37298;BME280;30517;51.932;4.278;2023-07-29T01:50:47;100694.56;;;21.16;52.47
37298;BME280;30517;51.932;4.278;2023-07-29T01:53:27;100678.50;;;20.97;52.46
37298;BME280;30517;51.932;4.278;2023-07-29T01:56:08;100680.81;;;21.05;52.34
37298;BME280;30517;51.932;4.278;2023-07-29T01:58:49;100662.50;;;20.96;52.62
37298;BME280;30517;51.932;4.278;2023-07-29T02:01:30;100675.31;;;21.08;52.28
37298;BME280;30517;51.932;4.278;2023-07-29T02:04:11;100680.66;;;21.08;52.33
37298;BME280;30517;51.932;4.278;2023-07-29T02:06:52;100671.81;;;21.06;52.52
37298;BME280;30517;51.932;4.278;2023-07-29T02:09:32;100672.88;;;21.04;52.21
37298;BME280;30517;51.932;4.278;2023-07-29T02:12:13;100658.00;;;20.96;52.34
37298;BME280;30517;51.932;4.278;2023-07-29T02:14:54;100671.41;;;20.96;52.49
37298;BME280;30517;51.932;4.278;2023-07-29T02:17:35;100667.00;;;20.95;52.50
37298;BME280;30517;51.932;4.278;2023-07-29T02:20:16;100662.78;;;20.90;52.56
37298;BME280;30517;51.932;4.278;2023-07-29T02:22:57;100669.69;;;20.95;52.25
37298;BME280;30517;51.932;4.278;2023-07-29T02:25:38;100656.50;;;20.91;52.74
37298;BME280;30517;51.932;4.278;2023-07-29T02:28:19;100649.25;;;20.93;52.37
37298;BME280;30517;51.932;4.278;2023-07-29T02:33:51;100601.38;;;20.66;52.44
37298;BME280;30517;51.932;4.278;2023-07-29T02:36:32;100649.38;;;20.90;52.39
37298;BME280;30517;51.932;4.278;2023-07-29T02:39:13;100634.25;;;20.70;52.65
37298;BME280;30517;51.932;4.278;2023-07-29T02:41:54;100647.81;;;20.86;52.42
37298;BME280;30517;51.932;4.278;2023-07-29T02:44:36;100660.41;;;20.84;52.52
37298;BME280;30517;51.932;4.278;2023-07-29T02:47:16;100626.00;;;20.74;52.38
37298;BME280;30517;51.932;4.278;2023-07-29T02:49:57;100641.63;;;20.84;52.22
37298;BME280;30517;51.932;4.278;2023-07-29T02:52:38;100643.50;;;20.82;52.42
37298;BME280;30517;51.932;4.278;2023-07-29T02:55:19;100651.69;;;20.78;52.33
37298;BME280;30517;51.932;4.278;2023-07-29T02:58:00;100653.66;;;20.75;52.37
37298;BME280;30517;51.932;4.278;2023-07-29T03:00:41;100645.28;;;20.64;52.54
37298;BME280;30517;51.932;4.278;2023-07-29T03:03:22;100665.19;;;20.77;52.22
37298;BME280;30517;51.932;4.278;2023-07-29T03:06:05;100613.09;;;20.45;52.52
37298;BME280;30517;51.932;4.278;2023-07-29T03:08:46;100648.97;;;20.61;52.53
37298;BME280;30517;51.932;4.278;2023-07-29T03:11:27;100656.50;;;20.72;52.67
37298;BME280;30517;51.932;4.278;2023-07-29T03:14:07;100620.66;;;20.55;52.31
37298;BME280;30517;51.932;4.278;2023-07-29T03:16:48;100654.84;;;20.69;52.38
37298;BME280;30517;51.932;4.278;2023-07-29T03:19:29;100570.44;;;20.21;52.49
37298;BME280;30517;51.932;4.278;2023-07-29T03:22:13;100615.78;;;20.45;52.31
37298;BME280;30517;51.932;4.278;2023-07-29T03:24:54;100654.19;;;20.64;52.55
37298;BME280;30517;51.932;4.278;2023-07-29T03:27:34;100663.75;;;20.70;52.24
37298;BME280;30517;51.932;4.278;2023-07-29T03:30:19;100649.97;;;20.59;52.44
37298;BME280;30517;51.932;4.278;2023-07-29T03:33:01;100677.28;;;20.67;52.27
37298;BME280;30517;51.932;4.278;2023-07-29T03:35:42;100673.75;;;20.66;52.49
37298;BME280;30517;51.932;4.278;2023-07-29T03:38:26;100653.47;;;20.61;52.54
37298;BME280;30517;51.932;4.278;2023-07-29T03:41:08;100658.44;;;20.68;52.17
37298;BME280;30517;51.932;4.278;2023-07-29T03:43:49;100652.88;;;20.54;52.51
37298;BME280;30517;51.932;4.278;2023-07-29T03:46:31;100664.31;;;20.58;52.48
37298;BME280;30517;51.932;4.278;2023-07-29T03:49:11;100661.56;;;20.59;52.32
37298;BME280;30517;51.932;4.278;2023-07-29T03:51:52;100658.34;;;20.51;52.66
37298;BME280;30517;51.932;4.278;2023-07-29T03:54:33;100655.41;;;20.57;52.27
37298;BME280;30517;51.932;4.278;2023-07-29T03:57:14;100626.63;;;20.42;52.44
37298;BME280;30517;51.932;4.278;2023-07-29T03:59:55;100646.50;;;20.57;52.46
37298;BME280;30517;51.932;4.278;2023-07-29T04:02:36;100591.72;;;20.24;52.57
37298;BME280;30517;51.932;4.278;2023-07-29T04:05:18;100651.00;;;20.56;52.59
37298;BME280;30517;51.932;4.278;2023-07-29T04:07:58;100654.72;;;20.52;52.56
37298;BME280;30517;51.932;4.278;2023-07-29T04:10:39;100617.28;;;20.31;52.52
37298;BME280;30517;51.932;4.278;2023-07-29T04:13:20;100650.75;;;20.42;52.55
37298;BME280;30517;51.932;4.278;2023-07-29T04:16:01;100658.34;;;20.51;52.60
37298;BME280;30517;51.932;4.278;2023-07-29T04:18:42;100640.94;;;20.41;52.61
37298;BME280;30517;51.932;4.278;2023-07-29T04:21:23;100660.22;;;20.49;52.72
37298;BME280;30517;51.932;4.278;2023-07-29T04:24:04;100611.41;;;20.23;52.41
37298;BME280;30517;51.932;4.278;2023-07-29T04:26:45;100647.78;;;20.48;52.57
37298;BME280;30517;51.932;4.278;2023-07-29T04:29:25;100642.19;;;20.33;52.73
37298;BME280;30517;51.932;4.278;2023-07-29T04:32:06;100660.34;;;20.46;52.56
37298;BME280;30517;51.932;4.278;2023-07-29T04:34:47;100680.94;;;20.45;52.50
37298;BME280;30517;51.932;4.278;2023-07-29T04:37:28;100633.97;;;20.18;52.30
37298;BME280;30517;51.932;4.278;2023-07-29T04:40:09;100659.31;;;20.29;52.71
37298;BME280;30517;51.932;4.278;2023-07-29T04:42:52;100684.56;;;20.44;52.68
37298;BME280;30517;51.932;4.278;2023-07-29T04:45:32;100661.56;;;20.39;52.27
37298;BME280;30517;51.932;4.278;2023-07-29T04:48:13;100667.81;;;20.39;52.40
37298;BME280;30517;51.932;4.278;2023-07-29T04:50:54;100670.50;;;20.39;52.51
37298;BME280;30517;51.932;4.278;2023-07-29T04:53:35;100675.84;;;20.39;52.67
37298;BME280;30517;51.932;4.278;2023-07-29T04:56:16;100611.91;;;20.13;52.76
37298;BME280;30517;51.932;4.278;2023-07-29T04:58:57;100648.75;;;20.26;52.72
37298;BME280;30517;51.932;4.278;2023-07-29T05:01:38;100679.41;;;20.40;52.62
37298;BME280;30517;51.932;4.278;2023-07-29T05:04:19;100621.00;;;20.08;52.65
37298;BME280;30517;51.932;4.278;2023-07-29T05:07:00;100632.09;;;20.20;52.56
37298;BME280;30517;51.932;4.278;2023-07-29T05:09:41;100639.84;;;20.26;52.87
37298;BME280;30517;51.932;4.278;2023-07-29T05:12:22;100659.94;;;20.36;52.87
37298;BME280;30517;51.932;4.278;2023-07-29T05:15:03;100654.44;;;20.39;52.52
37298;BME280;30517;51.932;4.278;2023-07-29T05:17:44;100615.91;;;20.23;52.63
37298;BME280;30517;51.932;4.278;2023-07-29T05:20:25;100640.38;;;20.34;52.90
37298;BME280;30517;51.932;4.278;2023-07-29T05:23:06;100649.84;;;20.41;52.46
37298;BME280;30517;51.932;4.278;2023-07-29T05:25:47;100631.06;;;20.22;52.68
37298;BME280;30517;51.932;4.278;2023-07-29T05:28:28;100595.06;;;20.09;52.42
37298;BME280;30517;51.932;4.278;2023-07-29T05:31:08;100652.66;;;20.38;52.73
37298;BME280;30517;51.932;4.278;2023-07-29T05:33:49;100630.16;;;20.23;52.60
37298;BME280;30517;51.932;4.278;2023-07-29T05:36:30;100628.34;;;20.24;52.58
37298;BME280;30517;51.932;4.278;2023-07-29T05:39:11;100650.94;;;20.37;52.49
37298;BME280;30517;51.932;4.278;2023-07-29T05:41:52;100652.91;;;20.33;52.93
37298;BME280;30517;51.932;4.278;2023-07-29T05:44:40;100598.19;;;20.00;52.77
37298;BME280;30517;51.932;4.278;2023-07-29T05:47:22;100612.19;;;20.06;52.94
37298;BME280;30517;51.932;4.278;2023-07-29T05:50:03;100634.84;;;20.18;52.64
37298;BME280;30517;51.932;4.278;2023-07-29T05:52:44;100552.06;;;19.74;52.73
37298;BME280;30517;51.932;4.278;2023-07-29T05:55:25;100644.25;;;20.27;52.68
37298;BME280;30517;51.932;4.278;2023-07-29T05:58:06;100677.63;;;20.39;52.67
37298;BME280;30517;51.932;4.278;2023-07-29T06:00:47;100610.84;;;19.96;52.59
37298;BME280;30517;51.932;4.278;2023-07-29T06:03:28;100626.28;;;20.10;52.52
37298;BME280;30517;51.932;4.278;2023-07-29T06:06:09;100674.03;;;20.40;52.71
37298;BME280;30517;51.932;4.278;2023-07-29T06:08:50;100541.16;;;19.58;52.81
37298;BME280;30517;51.932;4.278;2023-07-29T06:11:30;100676.88;;;20.37;52.68
37298;BME280;30517;51.932;4.278;2023-07-29T06:14:11;100671.66;;;20.33;52.74
37298;BME280;30517;51.932;4.278;2023-07-29T06:16:52;100672.50;;;20.34;52.68
37298;BME280;30517;51.932;4.278;2023-07-29T06:19:33;100631.66;;;20.10;52.98
37298;BME280;30517;51.932;4.278;2023-07-29T06:22:14;100624.28;;;20.15;52.71
37298;BME280;30517;51.932;4.278;2023-07-29T06:24:55;100603.16;;;19.88;52.87
37298;BME280;30517;51.932;4.278;2023-07-29T06:27:36;100666.16;;;20.37;52.63
37298;BME280;30517;51.932;4.278;2023-07-29T06:30:17;100660.34;;;20.27;53.15
37298;BME280;30517;51.932;4.278;2023-07-29T06:32:58;100607.31;;;19.96;53.08
37298;BME280;30517;51.932;4.278;2023-07-29T06:35:39;100672.56;;;20.32;53.36
37298;BME280;30517;51.932;4.278;2023-07-29T06:38:19;100644.03;;;20.13;52.85
37298;BME280;30517;51.932;4.278;2023-07-29T06:41:02;100657.75;;;20.25;52.79
37298;BME280;30517;51.932;4.278;2023-07-29T06:43:42;100678.59;;;20.38;53.43
37298;BME280;30517;51.932;4.278;2023-07-29T06:46:23;100620.94;;;20.10;53.21
37298;BME280;30517;51.932;4.278;2023-07-29T06:49:05;100647.13;;;20.22;52.59
37298;BME280;30517;51.932;4.278;2023-07-29T06:51:46;100674.09;;;20.38;52.86
37298;BME280;30517;51.932;4.278;2023-07-29T06:54:27;100546.63;;;19.55;52.89
37298;BME280;30517;51.932;4.278;2023-07-29T06:57:07;100604.63;;;19.96;52.84
37298;BME280;30517;51.932;4.278;2023-07-29T06:59:48;100674.25;;;20.35;53.14
37298;BME280;30517;51.932;4.278;2023-07-29T07:02:29;100651.72;;;20.20;53.80
37298;BME280;30517;51.932;4.278;2023-07-29T07:05:10;100468.00;;;19.18;53.11
37298;BME280;30517;51.932;4.278;2023-07-29T07:07:51;100574.00;;;19.82;53.54
37298;BME280;30517;51.932;4.278;2023-07-29T07:10:32;100645.41;;;20.21;53.32
37298;BME280;30517;51.932;4.278;2023-07-29T07:13:14;100641.94;;;20.19;53.52
37298;BME280;30517;51.932;4.278;2023-07-29T07:15:56;100693.47;;;20.45;53.06
37298;BME280;30517;51.932;4.278;2023-07-29T07:18:37;100683.56;;;20.47;53.16
37298;BME280;30517;51.932;4.278;2023-07-29T07:21:18;100661.94;;;20.31;52.93
37298;BME280;30517;51.932;4.278;2023-07-29T07:23:59;100651.63;;;20.22;53.18
37298;BME280;30517;51.932;4.278;2023-07-29T07:26:43;100643.16;;;20.12;53.18
37298;BME280;30517;51.932;4.278;2023-07-29T07:29:24;100698.59;;;20.49;53.17
37298;BME280;30517;51.932;4.278;2023-07-29T07:32:06;100698.59;;;20.49;53.43
37298;BME280;30517;51.932;4.278;2023-07-29T07:34:46;100691.66;;;20.45;53.24
37298;BME280;30517;51.932;4.278;2023-07-29T07:37:27;100704.69;;;20.53;53.44
37298;BME280;30517;51.932;4.278;2023-07-29T07:40:09;100675.09;;;20.36;53.26
37298;BME280;30517;51.932;4.278;2023-07-29T07:42:52;100616.78;;;20.03;53.09
37298;BME280;30517;51.932;4.278;2023-07-29T07:45:34;100675.63;;;20.44;53.05
37298;BME280;30517;51.932;4.278;2023-07-29T07:48:15;100708.06;;;20.58;53.11
37298;BME280;30517;51.932;4.278;2023-07-29T07:50:57;100716.00;;;20.60;53.33
37298;BME280;30517;51.932;4.278;2023-07-29T07:53:37;100703.72;;;20.55;53.57
37298;BME280;30517;51.932;4.278;2023-07-29T07:56:18;100709.78;;;20.59;53.63
37298;BME280;30517;51.932;4.278;2023-07-29T07:58:59;100713.44;;;20.58;53.88
37298;BME280;30517;51.932;4.278;2023-07-29T08:01:40;100676.63;;;20.41;53.61
37298;BME280;30517;51.932;4.278;2023-07-29T08:04:21;100639.78;;;20.27;53.40
37298;BME280;30517;51.932;4.278;2023-07-29T08:07:02;100709.13;;;20.54;54.04
37298;BME280;30517;51.932;4.278;2023-07-29T08:09:43;100715.16;;;20.59;53.72
37298;BME280;30517;51.932;4.278;2023-07-29T08:12:24;100724.50;;;20.69;54.04
37298;BME280;30517;51.932;4.278;2023-07-29T08:15:06;100688.00;;;20.46;54.10
37298;BME280;30517;51.932;4.278;2023-07-29T08:17:47;100738.56;;;20.74;53.61
37298;BME280;30517;51.932;4.278;2023-07-29T08:20:28;100720.97;;;20.69;53.65
37298;BME280;30517;51.932;4.278;2023-07-29T08:23:09;100725.03;;;20.77;53.38
37298;BME280;30517;51.932;4.278;2023-07-29T08:25:55;100727.63;;;20.79;53.68
37298;BME280;30517;51.932;4.278;2023-07-29T08:28:38;100710.16;;;20.70;53.65
37298;BME280;30517;51.932;4.278;2023-07-29T08:31:20;100729.28;;;20.82;53.50
37298;BME280;30517;51.932;4.278;2023-07-29T08:34:01;100687.34;;;20.62;53.36
37298;BME280;30517;51.932;4.278;2023-07-29T08:36:41;100733.63;;;20.84;53.81
37298;BME280;30517;51.932;4.278;2023-07-29T08:39:23;100688.34;;;20.59;53.25
37298;BME280;30517;51.932;4.278;2023-07-29T08:42:04;100722.78;;;20.87;53.35
37298;BME280;30517;51.932;4.278;2023-07-29T08:44:49;100727.22;;;20.88;53.67
37298;BME280;30517;51.932;4.278;2023-07-29T08:47:30;100717.72;;;20.81;53.37
37298;BME280;30517;51.932;4.278;2023-07-29T08:50:11;100731.63;;;20.89;53.69
37298;BME280;30517;51.932;4.278;2023-07-29T08:52:54;100716.03;;;20.78;53.38
37298;BME280;30517;51.932;4.278;2023-07-29T08:55:36;100725.25;;;20.92;53.58
37298;BME280;30517;51.932;4.278;2023-07-29T08:58:17;100712.28;;;20.83;53.54
37298;BME280;30517;51.932;4.278;2023-07-29T09:00:59;100728.72;;;20.94;53.72
37298;BME280;30517;51.932;4.278;2023-07-29T09:03:41;100721.50;;;20.96;53.39
37298;BME280;30517;51.932;4.278;2023-07-29T09:06:23;100733.06;;;20.96;53.63
37298;BME280;30517;51.932;4.278;2023-07-29T09:09:08;100726.75;;;20.97;53.44
37298;BME280;30517;51.932;4.278;2023-07-29T09:11:49;100739.16;;;21.00;53.72
37298;BME280;30517;51.932;4.278;2023-07-29T09:14:30;100721.91;;;20.87;53.56
37298;BME280;30517;51.932;4.278;2023-07-29T09:17:11;100739.97;;;21.02;53.63
37298;BME280;30517;51.932;4.278;2023-07-29T09:19:53;100741.69;;;21.03;53.66
37298;BME280;30517;51.932;4.278;2023-07-29T09:22:34;100732.72;;;21.04;53.67
37298;BME280;30517;51.932;4.278;2023-07-29T09:25:15;100710.16;;;20.89;53.60
37298;BME280;30517;51.932;4.278;2023-07-29T09:28:00;100741.53;;;21.06;53.55
37298;BME280;30517;51.932;4.278;2023-07-29T09:30:46;100738.81;;;21.08;53.67
37298;BME280;30517;51.932;4.278;2023-07-29T09:33:28;100742.28;;;21.10;53.60
37298;BME280;30517;51.932;4.278;2023-07-29T09:36:09;100733.28;;;21.11;53.65
37298;BME280;30517;51.932;4.278;2023-07-29T09:38:54;100729.69;;;21.12;53.69
37298;BME280;30517;51.932;4.278;2023-07-29T09:41:35;100717.13;;;21.12;53.62
37298;BME280;30517;51.932;4.278;2023-07-29T09:44:16;100701.31;;;21.06;53.73
37298;BME280;30517;51.932;4.278;2023-07-29T09:46:58;100717.03;;;21.14;53.67
37298;BME280;30517;51.932;4.278;2023-07-29T09:49:39;100716.97;;;21.15;53.69
37298;BME280;30517;51.932;4.278;2023-07-29T09:52:22;100692.16;;;20.93;53.53
37298;BME280;30517;51.932;4.278;2023-07-29T09:55:03;100711.19;;;21.06;53.64
37298;BME280;30517;51.932;4.278;2023-07-29T09:57:46;100732.84;;;21.20;53.66
37298;BME280;30517;51.932;4.278;2023-07-29T10:00:31;100710.09;;;21.10;53.55
37298;BME280;30517;51.932;4.278;2023-07-29T10:03:12;100738.13;;;21.21;53.62
37298;BME280;30517;51.932;4.278;2023-07-29T10:05:55;100713.94;;;21.04;53.59
37298;BME280;30517;51.932;4.278;2023-07-29T10:08:36;100746.97;;;21.24;53.61
37298;BME280;30517;51.932;4.278;2023-07-29T10:11:23;100729.69;;;21.12;53.54
37298;BME280;30517;51.932;4.278;2023-07-29T10:14:05;100690.47;;;20.90;53.47
37298;BME280;30517;51.932;4.278;2023-07-29T10:16:46;100747.78;;;21.26;53.38
37298;BME280;30517;51.932;4.278;2023-07-29T10:19:28;100721.69;;;21.10;53.50
37298;BME280;30517;51.932;4.278;2023-07-29T10:22:11;100755.75;;;21.27;53.47
37298;BME280;30517;51.932;4.278;2023-07-29T10:25:04;100755.69;;;21.29;53.44
37298;BME280;30517;51.932;4.278;2023-07-29T10:27:49;100736.41;;;21.20;53.40
37298;BME280;30517;51.932;4.278;2023-07-29T10:30:33;100754.72;;;21.30;53.25
37298;BME280;30517;51.932;4.278;2023-07-29T10:33:14;100666.06;;;20.77;53.14
37298;BME280;30517;51.932;4.278;2023-07-29T10:35:55;100763.56;;;21.32;53.35
37298;BME280;30517;51.932;4.278;2023-07-29T10:38:36;100762.78;;;21.30;53.15
37298;BME280;30517;51.932;4.278;2023-07-29T10:41:17;100759.16;;;21.31;53.30
37298;BME280;30517;51.932;4.278;2023-07-29T10:43:58;100764.53;;;21.31;53.46
37298;BME280;30517;51.932;4.278;2023-07-29T10:46:39;100722.50;;;21.12;53.21
37298;BME280;30517;51.932;4.278;2023-07-29T10:49:23;100729.94;;;21.25;53.45
37298;BME280;30517;51.932;4.278;2023-07-29T10:52:04;100736.25;;;21.24;53.20
37298;BME280;30517;51.932;4.278;2023-07-29T10:54:47;100730.75;;;21.27;53.29
37298;BME280;30517;51.932;4.278;2023-07-29T10:57:37;100741.09;;;21.34;53.48
37298;BME280;30517;51.932;4.278;2023-07-29T11:00:19;100718.44;;;21.23;53.28
37298;BME280;30517;51.932;4.278;2023-07-29T11:03:07;100745.50;;;21.35;53.50
37298;BME280;30517;51.932;4.278;2023-07-29T11:05:50;100747.31;;;21.35;53.49
37298;BME280;30517;51.932;4.278;2023-07-29T11:08:31;100744.66;;;21.35;53.40
37298;BME280;30517;51.932;4.278;2023-07-29T11:11:14;100736.53;;;21.36;53.46
37298;BME280;30517;51.932;4.278;2023-07-29T11:13:55;100726.81;;;21.34;53.51
37298;BME280;30517;51.932;4.278;2023-07-29T11:16:36;100732.88;;;21.39;53.60
37298;BME280;30517;51.932;4.278;2023-07-29T11:19:19;100736.41;;;21.39;53.64
37298;BME280;30517;51.932;4.278;2023-07-29T11:22:01;100734.59;;;21.40;53.74
37298;BME280;30517;51.932;4.278;2023-07-29T11:24:42;100732.72;;;21.42;53.56
37298;BME280;30517;51.932;4.278;2023-07-29T11:27:24;100705.16;;;21.19;53.62
37298;BME280;30517;51.932;4.278;2023-07-29T11:30:07;100753.22;;;21.43;53.54
37298;BME280;30517;51.932;4.278;2023-07-29T11:32:48;100739.66;;;21.46;53.79
37298;BME280;30517;51.932;4.278;2023-07-29T11:35:29;100718.78;;;21.34;53.69
37298;BME280;30517;51.932;4.278;2023-07-29T11:38:16;100737.78;;;21.48;53.63
37298;BME280;30517;51.932;4.278;2023-07-29T11:41:01;100735.03;;;21.50;53.80
37298;BME280;30517;51.932;4.278;2023-07-29T11:43:46;100741.16;;;21.52;53.78
37298;BME280;30517;51.932;4.278;2023-07-29T11:46:27;100678.09;;;21.24;53.81
37298;BME280;30517;51.932;4.278;2023-07-29T11:49:08;100658.56;;;21.03;53.82
37298;BME280;30517;51.932;4.278;2023-07-29T11:51:49;100753.41;;;21.57;53.69
37298;BME280;30517;51.932;4.278;2023-07-29T11:54:30;100590.56;;;20.68;53.75
37298;BME280;30517;51.932;4.278;2023-07-29T11:57:12;100751.53;;;21.59;53.89
37298;BME280;30517;51.932;4.278;2023-07-29T11:59:55;100621.00;;;20.86;53.71
37298;BME280;30517;51.932;4.278;2023-07-29T12:02:37;100717.81;;;21.54;54.05
37298;BME280;30517;51.932;4.278;2023-07-29T12:05:22;100665.72;;;21.21;53.82
37298;BME280;30517;51.932;4.278;2023-07-29T12:08:03;100729.66;;;21.67;54.04
37298;BME280;30517;51.932;4.278;2023-07-29T12:10:44;100740.81;;;21.77;53.37
37298;BME280;30517;51.932;4.278;2023-07-29T12:13:25;100596.78;;;20.87;53.89
37298;BME280;30517;51.932;4.278;2023-07-29T12:16:06;100742.72;;;21.75;54.03
37298;BME280;30517;51.932;4.278;2023-07-29T12:18:50;100746.19;;;21.77;53.99
37298;BME280;30517;51.932;4.278;2023-07-29T12:21:31;100745.25;;;21.78;53.87
37298;BME280;30517;51.932;4.278;2023-07-29T12:24:12;100680.78;;;21.43;53.84
37298;BME280;30517;51.932;4.278;2023-07-29T12:26:57;100733.78;;;21.74;53.79
37298;BME280;30517;51.932;4.278;2023-07-29T12:29:43;100683.78;;;21.54;53.64
37298;BME280;30517;51.932;4.278;2023-07-29T12:32:25;100670.38;;;21.54;53.70
37298;BME280;30517;51.932;4.278;2023-07-29T12:35:09;100731.19;;;21.90;53.59
37298;BME280;30517;51.932;4.278;2023-07-29T12:38:00;100734.75;;;21.91;53.95
37298;BME280;30517;51.932;4.278;2023-07-29T12:40:41;100669.19;;;21.60;53.90
37298;BME280;30517;51.932;4.278;2023-07-29T12:43:22;100661.38;;;21.55;53.67
37298;BME280;30517;51.932;4.278;2023-07-29T12:46:03;100731.50;;;22.01;53.62
37298;BME280;30517;51.932;4.278;2023-07-29T12:48:44;100711.34;;;21.93;53.63
37298;BME280;30517;51.932;4.278;2023-07-29T12:51:24;100731.97;;;22.09;53.64
37298;BME280;30517;51.932;4.278;2023-07-29T12:54:05;100730.84;;;22.14;53.49
37298;BME280;30517;51.932;4.278;2023-07-29T12:56:46;100716.25;;;22.02;53.38
37298;BME280;30517;51.932;4.278;2023-07-29T12:59:27;100592.75;;;21.32;53.52
37298;BME280;30517;51.932;4.278;2023-07-29T13:02:08;100711.44;;;22.08;53.60
37298;BME280;30517;51.932;4.278;2023-07-29T13:04:49;100718.72;;;22.24;53.73
37298;BME280;30517;51.932;4.278;2023-07-29T13:07:30;100728.19;;;22.31;53.59
37298;BME280;30517;51.932;4.278;2023-07-29T13:10:11;100733.41;;;22.34;53.19
37298;BME280;30517;51.932;4.278;2023-07-29T13:12:52;100711.06;;;22.34;52.99
37298;BME280;30517;51.932;4.278;2023-07-29T13:15:33;100715.41;;;22.36;53.57
37298;BME280;30517;51.932;4.278;2023-07-29T13:18:14;100683.97;;;22.21;53.45
37298;BME280;30517;51.932;4.278;2023-07-29T13:20:55;100698.53;;;22.33;53.14
37298;BME280;30517;51.932;4.278;2023-07-29T13:23:37;100690.78;;;22.44;53.13
37298;BME280;30517;51.932;4.278;2023-07-29T13:26:18;100695.13;;;22.46;53.38
37298;BME280;30517;51.932;4.278;2023-07-29T13:28:59;100718.94;;;22.70;53.47
37298;BME280;30517;51.932;4.278;2023-07-29T13:31:40;100725.91;;;22.74;53.30
37298;BME280;30517;51.932;4.278;2023-07-29T13:34:21;100723.91;;;22.78;53.13
37298;BME280;30517;51.932;4.278;2023-07-29T13:37:02;100716.34;;;22.84;52.83
37298;BME280;30517;51.932;4.278;2023-07-29T13:39:43;100718.72;;;22.90;53.12
37298;BME280;30517;51.932;4.278;2023-07-29T13:42:24;100724.72;;;22.95;53.21
37298;BME280;30517;51.932;4.278;2023-07-29T13:45:06;100721.69;;;23.02;53.05
37298;BME280;30517;51.932;4.278;2023-07-29T13:47:48;100720.66;;;23.04;52.83
37298;BME280;30517;51.932;4.278;2023-07-29T13:50:29;100707.56;;;22.98;52.56
37298;BME280;30517;51.932;4.278;2023-07-29T13:53:09;100715.72;;;23.12;52.62
37298;BME280;30517;51.932;4.278;2023-07-29T13:55:51;100705.03;;;23.11;52.82
37298;BME280;30517;51.932;4.278;2023-07-29T13:58:31;100728.75;;;23.20;52.62
37298;BME280;30517;51.932;4.278;2023-07-29T14:01:12;100726.47;;;23.28;52.47
37298;BME280;30517;51.932;4.278;2023-07-29T14:03:53;100645.56;;;22.84;52.21
37298;BME280;30517;51.932;4.278;2023-07-29T14:06:34;100730.72;;;23.32;52.17
37298;BME280;30517;51.932;4.278;2023-07-29T14:09:15;100656.47;;;22.98;52.34
37298;BME280;30517;51.932;4.278;2023-07-29T14:11:56;100725.69;;;23.42;52.33